createdAt,value
2018-11-14T00:00:31.582Z,100.00
2018-11-14T00:03:02.305Z,100.00
2018-11-14T00:05:31.754Z,100.00
2018-11-14T00:08:01.168Z,100.00
2018-11-14T00:10:30.642Z,100.00
2018-11-14T00:13:00.066Z,100.00
2018-11-14T00:15:29.475Z,100.00
2018-11-14T00:17:58.902Z,100.00
2018-11-14T00:20:28.403Z,100.00
2018-11-14T00:22:57.842Z,100.00
2018-11-14T00:25:27.522Z,100.00
2018-11-14T00:27:56.949Z,100.00
2018-11-14T00:30:27.066Z,100.00
2018-11-14T00:32:56.544Z,100.00
2018-11-14T00:35:26.011Z,100.00
2018-11-14T00:37:55.432Z,100.00
2018-11-14T00:40:24.962Z,100.00
2018-11-14T00:42:54.365Z,100.00
2018-11-14T00:45:23.876Z,100.00
2018-11-14T00:47:53.482Z,100.00
2018-11-14T00:50:22.883Z,100.00
2018-11-14T00:52:52.289Z,100.00
2018-11-14T00:55:22.529Z,100.00
2018-11-14T00:57:53.012Z,100.00
2018-11-14T01:00:24.621Z,100.00
2018-11-14T01:02:54.409Z,100.00
2018-11-14T01:05:23.873Z,100.00
2018-11-14T01:07:53.519Z,100.00
2018-11-14T01:10:23.359Z,100.00
2018-11-14T01:12:52.963Z,100.00
2018-11-14T01:15:23.670Z,100.00
2018-11-14T01:17:53.118Z,100.00
2018-11-14T01:20:23.242Z,100.00
2018-11-14T01:22:52.907Z,100.00
2018-11-14T01:25:22.314Z,100.00
2018-11-14T01:27:51.742Z,100.00
2018-11-14T01:30:22.558Z,100.00
2018-11-14T01:32:52.430Z,100.00
2018-11-14T01:35:21.909Z,100.00
2018-11-14T01:37:51.681Z,100.00
2018-11-14T01:40:23.818Z,100.00
2018-11-14T01:42:54.602Z,100.00
2018-11-14T01:45:24.084Z,100.00
2018-11-14T01:47:53.567Z,100.00
2018-11-14T01:50:23.024Z,100.00
2018-11-14T01:52:52.451Z,100.00
2018-11-14T01:55:22.239Z,100.00
2018-11-14T01:57:51.685Z,100.00
2018-11-14T02:00:22.659Z,100.00
2018-11-14T02:02:52.246Z,100.00
2018-11-14T02:05:21.676Z,100.00
2018-11-14T02:07:51.111Z,100.00
2018-11-14T02:10:21.209Z,100.00
2018-11-14T02:12:50.681Z,100.00
2018-11-14T02:15:21.453Z,100.00
2018-11-14T02:17:51.181Z,100.00
2018-11-14T02:20:20.654Z,100.00
2018-11-14T02:22:50.091Z,100.00
2018-11-14T02:25:19.767Z,100.00
2018-11-14T02:27:49.202Z,100.00
2018-11-14T02:30:21.022Z,100.00
2018-11-14T02:32:50.535Z,100.00
2018-11-14T02:35:20.243Z,100.00
2018-11-14T02:37:49.864Z,100.00
2018-11-14T02:40:20.606Z,100.00
2018-11-14T02:42:50.446Z,100.00
2018-11-14T02:45:19.950Z,100.00
2018-11-14T02:47:49.582Z,100.00
2018-11-14T02:50:19.634Z,100.00
2018-11-14T02:52:49.094Z,100.00
2018-11-14T02:55:18.814Z,100.00
2018-11-14T02:57:48.575Z,100.00
2018-11-14T03:00:19.467Z,100.00
2018-11-14T03:02:49.177Z,100.00
2018-11-14T03:05:18.739Z,100.00
2018-11-14T03:07:48.308Z,100.00
2018-11-14T03:10:20.936Z,100.00
2018-11-14T03:12:50.449Z,100.00
2018-11-14T03:15:21.154Z,100.00
2018-11-14T03:17:50.619Z,100.00
2018-11-14T03:20:21.290Z,100.00
2018-11-14T03:22:50.719Z,100.00
2018-11-14T03:25:20.194Z,100.00
2018-11-14T03:27:49.614Z,100.00
2018-11-14T03:30:19.403Z,100.00
2018-11-14T03:32:48.999Z,100.00
2018-11-14T03:35:18.423Z,100.00
2018-11-14T03:37:47.879Z,100.00
2018-11-14T03:40:17.702Z,100.00
2018-11-14T03:42:47.145Z,100.00
2018-11-14T03:45:16.647Z,100.00
2018-11-14T03:47:46.058Z,100.00
2018-11-14T03:50:15.577Z,100.00
2018-11-14T03:52:45.198Z,100.00
2018-11-14T03:55:14.785Z,100.00
2018-11-14T03:57:44.183Z,100.00
2018-11-14T04:00:15.720Z,100.00
2018-11-14T04:02:46.268Z,100.00
2018-11-14T04:05:15.729Z,100.00
2018-11-14T04:07:45.173Z,100.00
2018-11-14T04:10:15.181Z,100.00
2018-11-14T04:12:45.074Z,100.00
2018-11-14T04:15:15.510Z,100.00
2018-11-14T04:17:45.091Z,100.00
2018-11-14T04:20:15.921Z,100.00
2018-11-14T04:22:46.088Z,100.00
2018-11-14T04:25:17.050Z,100.00
2018-11-14T04:27:47.243Z,100.00
2018-11-14T04:30:20.949Z,100.00
2018-11-14T04:32:50.434Z,100.00
2018-11-14T04:35:20.759Z,100.00
2018-11-14T04:37:50.318Z,100.00
2018-11-14T04:40:22.785Z,100.00
2018-11-14T04:42:52.475Z,100.00
2018-11-14T04:45:24.102Z,100.00
2018-11-14T04:47:53.716Z,100.00
2018-11-14T04:50:25.845Z,100.00
2018-11-14T04:52:55.708Z,100.00
2018-11-14T04:55:26.248Z,100.00
2018-11-14T04:57:55.685Z,100.00
2018-11-14T05:00:26.062Z,100.00
2018-11-14T05:02:55.488Z,100.00
2018-11-14T05:05:25.578Z,100.00
2018-11-14T05:07:55.049Z,100.00
2018-11-14T05:10:25.674Z,100.00
2018-11-14T05:12:55.177Z,100.00
2018-11-14T05:15:25.623Z,100.00
2018-11-14T05:17:55.381Z,100.00
2018-11-14T05:20:24.842Z,100.00
2018-11-14T05:22:54.331Z,100.00
2018-11-14T05:25:23.838Z,100.00
2018-11-14T05:27:53.271Z,100.00
2018-11-14T05:30:23.677Z,100.00
2018-11-14T05:32:53.510Z,100.00
2018-11-14T05:35:22.929Z,100.00
2018-11-14T05:37:52.364Z,100.00
2018-11-14T05:40:22.870Z,100.00
2018-11-14T05:42:53.174Z,100.00
2018-11-14T05:45:26.114Z,100.00
2018-11-14T05:47:55.589Z,100.00
2018-11-14T05:50:25.384Z,100.00
2018-11-14T05:52:54.857Z,100.00
2018-11-14T05:55:24.315Z,100.00
2018-11-14T05:57:53.730Z,100.00
2018-11-14T06:00:29.362Z,100.00
2018-11-14T06:02:59.684Z,100.00
2018-11-14T06:05:29.152Z,100.00
2018-11-14T06:07:58.594Z,100.00
2018-11-14T06:10:28.054Z,100.00
2018-11-14T06:12:57.585Z,100.00
2018-11-14T06:15:27.092Z,100.00
2018-11-14T06:17:58.105Z,100.00
2018-11-14T06:20:27.562Z,100.00
2018-11-14T06:22:56.992Z,100.00
2018-11-14T06:25:30.061Z,100.00
2018-11-14T06:28:00.426Z,100.00
2018-11-14T06:30:30.147Z,100.00
2018-11-14T06:33:00.203Z,100.00
2018-11-14T06:35:29.650Z,100.00
2018-11-14T06:37:59.121Z,100.00
2018-11-14T06:40:28.697Z,100.00
2018-11-14T06:42:58.181Z,100.00
2018-11-14T06:45:28.841Z,100.00
2018-11-14T06:47:59.534Z,100.00
2018-11-14T06:50:28.942Z,100.00
2018-11-14T06:52:59.881Z,100.00
2018-11-14T06:55:29.261Z,100.00
2018-11-14T06:57:58.798Z,100.00
2018-11-14T07:00:29.666Z,100.00
2018-11-14T07:02:59.962Z,100.00
2018-11-14T07:05:29.545Z,100.00
2018-11-14T07:07:58.965Z,100.00
2018-11-14T07:10:29.834Z,100.00
2018-11-14T07:13:04.527Z,100.00
2018-11-14T07:15:34.681Z,100.00
2018-11-14T07:18:04.311Z,100.00
2018-11-14T07:20:36.259Z,100.00
2018-11-14T07:23:05.958Z,100.00
2018-11-14T07:25:35.373Z,100.00
2018-11-14T07:28:04.945Z,100.00
2018-11-14T07:30:34.994Z,100.00
2018-11-14T07:33:05.838Z,99.65
2018-11-14T07:35:35.332Z,96.72
2018-11-14T07:38:46.225Z,93.92
2018-11-14T07:41:18.590Z,91.16
2018-11-14T07:43:48.092Z,88.39
2018-11-14T07:46:17.536Z,86.83
2018-11-14T07:48:48.141Z,84.68
2018-11-14T07:51:17.563Z,83.29
2018-11-14T07:53:47.023Z,81.53
2018-11-14T07:56:16.489Z,79.62
2018-11-14T07:58:45.918Z,78.55
2018-11-14T08:01:15.851Z,78.24
2018-11-14T08:03:46.505Z,76.69
2018-11-14T08:06:16.089Z,75.28
2018-11-14T08:08:45.872Z,75.27
2018-11-14T08:11:15.305Z,74.73
2018-11-14T08:13:46.166Z,73.00
2018-11-14T08:16:15.613Z,72.97
2018-11-14T08:18:45.115Z,71.56
2018-11-14T08:21:14.533Z,71.30
2018-11-14T08:23:44.005Z,70.27
2018-11-14T08:26:13.433Z,69.58
2018-11-14T08:28:42.866Z,68.01
2018-11-14T08:31:12.295Z,67.00
2018-11-14T08:33:41.722Z,65.87
2018-11-14T08:36:11.200Z,65.37
2018-11-14T08:38:40.764Z,65.49
2018-11-14T08:41:10.242Z,66.41
2018-11-14T08:43:39.745Z,66.13
2018-11-14T08:46:09.199Z,65.40
2018-11-14T08:48:38.626Z,64.66
2018-11-14T08:51:08.233Z,63.46
2018-11-14T08:53:37.647Z,62.25
2018-11-14T08:56:07.319Z,62.62
2018-11-14T08:58:37.121Z,61.95
2018-11-14T09:01:06.641Z,61.53
2018-11-14T09:03:36.061Z,61.08
2018-11-14T09:06:05.657Z,60.86
2018-11-14T09:08:35.062Z,60.83
2018-11-14T09:11:04.733Z,60.42
2018-11-14T09:13:34.125Z,60.60
2018-11-14T09:16:03.582Z,59.82
2018-11-14T09:18:33.051Z,58.93
2018-11-14T09:21:02.485Z,59.74
2018-11-14T09:23:31.951Z,59.34
2018-11-14T09:26:01.466Z,59.57
2018-11-14T09:28:30.882Z,59.40
2018-11-14T09:31:00.321Z,60.51
2018-11-14T09:33:29.767Z,60.97
2018-11-14T09:35:59.220Z,62.33
2018-11-14T09:38:28.645Z,61.75
2018-11-14T09:40:58.264Z,62.67
2018-11-14T09:43:27.674Z,63.31
2018-11-14T09:45:57.118Z,64.39
2018-11-14T09:48:26.953Z,64.56
2018-11-14T09:50:56.386Z,65.29
2018-11-14T09:53:25.926Z,65.76
2018-11-14T09:55:55.270Z,65.14
2018-11-14T09:58:24.719Z,65.58
2018-11-14T10:00:54.159Z,65.53
2018-11-14T10:03:23.585Z,65.13
2018-11-14T10:05:53.038Z,66.09
2018-11-14T10:08:22.550Z,65.98
2018-11-14T10:10:52.051Z,66.04
2018-11-14T10:13:21.425Z,65.80
2018-11-14T10:15:50.964Z,66.49
2018-11-14T10:18:20.291Z,66.97
2018-11-14T10:20:49.711Z,67.49
2018-11-14T10:23:19.135Z,68.70
2018-11-14T10:25:48.553Z,69.07
2018-11-14T10:28:17.994Z,68.94
2018-11-14T10:30:47.434Z,68.97
2018-11-14T10:33:16.838Z,69.81
2018-11-14T10:35:46.274Z,69.22
2018-11-14T10:38:15.759Z,70.19
2018-11-14T10:40:45.301Z,70.47
2018-11-14T10:43:14.898Z,71.19
2018-11-14T10:45:44.381Z,72.20
2018-11-14T10:48:13.882Z,71.93
2018-11-14T10:50:43.564Z,72.53
2018-11-14T10:53:12.949Z,72.41
2018-11-14T10:55:42.380Z,73.03
2018-11-14T10:58:11.869Z,73.22
2018-11-14T11:00:46.539Z,74.16
2018-11-14T11:03:21.717Z,75.04
2018-11-14T11:05:56.348Z,74.96
2018-11-14T11:08:29.910Z,76.24
2018-11-14T11:11:04.961Z,76.78
2018-11-14T11:13:39.470Z,76.77
2018-11-14T11:16:14.088Z,77.17
2018-11-14T11:18:43.618Z,76.83
2018-11-14T11:21:13.038Z,77.63
2018-11-14T11:23:42.470Z,77.40
2018-11-14T11:26:11.928Z,76.83
2018-11-14T11:28:41.418Z,77.14
2018-11-14T11:31:10.834Z,77.32
2018-11-14T11:33:40.361Z,77.88
2018-11-14T11:36:09.787Z,77.75
2018-11-14T11:38:39.208Z,77.72
2018-11-14T11:41:08.633Z,77.88
2018-11-14T11:43:38.130Z,77.69
2018-11-14T11:46:09.276Z,77.92
2018-11-14T11:48:38.751Z,77.57
2018-11-14T11:51:08.381Z,76.93
2018-11-14T11:53:37.795Z,76.44
2018-11-14T11:56:07.446Z,76.76
2018-11-14T11:58:36.918Z,75.55
2018-11-14T12:01:06.766Z,75.99
2018-11-14T12:03:36.282Z,76.11
2018-11-14T12:06:06.380Z,75.65
2018-11-14T12:08:35.778Z,75.73
2018-11-14T12:11:05.819Z,75.07
2018-11-14T12:13:35.335Z,74.69
2018-11-14T12:16:04.786Z,74.35
2018-11-14T12:18:34.238Z,74.78
2018-11-14T12:21:03.670Z,74.55
2018-11-14T12:23:33.297Z,74.47
2018-11-14T12:26:02.752Z,74.15
2018-11-14T12:28:32.221Z,74.91
2018-11-14T12:31:01.765Z,74.77
2018-11-14T12:33:31.146Z,74.62
2018-11-14T12:36:00.636Z,74.84
2018-11-14T12:38:30.203Z,74.37
2018-11-14T12:40:59.647Z,74.54
2018-11-14T12:43:29.164Z,74.79
2018-11-14T12:45:58.636Z,74.74
2018-11-14T12:48:28.247Z,74.33
2018-11-14T12:50:57.758Z,75.36
2018-11-14T12:53:27.198Z,75.30
2018-11-14T12:55:56.672Z,75.26
2018-11-14T12:58:26.114Z,75.44
2018-11-14T13:00:55.554Z,75.23
2018-11-14T13:03:25.187Z,75.68
2018-11-14T13:05:54.630Z,74.96
2018-11-14T13:08:24.051Z,75.62
2018-11-14T13:10:53.509Z,75.31
2018-11-14T13:13:22.998Z,74.84
2018-11-14T13:15:52.446Z,74.71
2018-11-14T13:18:21.884Z,74.59
2018-11-14T13:20:51.350Z,75.04
2018-11-14T13:23:20.790Z,75.17
2018-11-14T13:25:50.227Z,75.50
2018-11-14T13:28:19.958Z,76.13
2018-11-14T13:30:49.546Z,76.27
2018-11-14T13:33:19.013Z,76.32
2018-11-14T13:35:48.557Z,76.87
2018-11-14T13:38:18.074Z,76.69
2018-11-14T13:40:47.782Z,77.53
2018-11-14T13:43:17.332Z,77.41
2018-11-14T13:45:46.740Z,77.42
2018-11-14T13:48:16.175Z,77.66
2018-11-14T13:50:45.904Z,78.60
2018-11-14T13:53:15.120Z,79.12
2018-11-14T13:55:44.590Z,79.17
2018-11-14T13:58:14.036Z,79.59
2018-11-14T14:00:43.554Z,79.44
2018-11-14T14:03:12.980Z,79.60
2018-11-14T14:05:42.482Z,79.99
2018-11-14T14:08:11.949Z,80.50
2018-11-14T14:10:41.394Z,80.32
2018-11-14T14:13:10.842Z,81.05
2018-11-14T14:15:40.283Z,81.39
2018-11-14T14:18:09.748Z,81.22
2018-11-14T14:20:39.238Z,82.21
2018-11-14T14:23:08.710Z,82.37
2018-11-14T14:25:38.203Z,83.07
2018-11-14T14:28:07.635Z,83.21
2018-11-14T14:30:37.321Z,83.40
2018-11-14T14:33:06.786Z,84.23
2018-11-14T14:35:36.254Z,84.51
2018-11-14T14:38:05.804Z,84.46
2018-11-14T14:40:35.162Z,84.51
2018-11-14T14:43:04.838Z,85.06
2018-11-14T14:45:34.283Z,85.60
2018-11-14T14:48:03.717Z,85.68
2018-11-14T14:50:33.210Z,86.02
2018-11-14T14:53:02.838Z,86.36
2018-11-14T14:55:32.318Z,87.41
2018-11-14T14:58:01.743Z,87.38
2018-11-14T15:00:31.230Z,87.95
2018-11-14T15:03:00.651Z,88.35
2018-11-14T15:05:30.162Z,88.62
2018-11-14T15:07:59.626Z,88.96
2018-11-14T15:10:29.169Z,89.87
2018-11-14T15:12:58.579Z,89.69
2018-11-14T15:15:28.016Z,90.35
2018-11-14T15:17:57.480Z,91.22
2018-11-14T15:20:26.880Z,91.25
2018-11-14T15:22:56.299Z,91.63
2018-11-14T15:25:25.724Z,92.39
2018-11-14T15:27:55.146Z,93.43
2018-11-14T15:30:25.952Z,93.12
2018-11-14T15:32:55.538Z,94.29
2018-11-14T15:35:25.132Z,94.16
2018-11-14T15:37:54.442Z,95.07
2018-11-14T15:40:25.395Z,95.16
2018-11-14T15:42:54.908Z,95.38
2018-11-14T15:45:26.854Z,95.67
2018-11-14T15:47:56.430Z,96.03
2018-11-14T15:50:27.404Z,96.61
2018-11-14T15:52:57.738Z,96.66
2018-11-14T15:55:27.285Z,96.69
2018-11-14T15:58:03.497Z,97.11
2018-11-14T16:00:33.638Z,97.80
2018-11-14T16:03:03.179Z,97.88
2018-11-14T16:05:33.548Z,98.29
2018-11-14T16:08:04.071Z,98.17
2018-11-14T16:10:34.400Z,98.28
2018-11-14T16:13:03.873Z,98.91
2018-11-14T16:15:34.654Z,98.85
2018-11-14T16:18:04.117Z,98.62
2018-11-14T16:20:33.537Z,99.11
2018-11-14T16:23:02.943Z,99.20
2018-11-14T16:25:32.406Z,99.35
2018-11-14T16:28:02.599Z,99.10
2018-11-14T16:30:33.127Z,99.78
2018-11-14T16:33:03.988Z,99.49
2018-11-14T16:35:33.423Z,98.83
2018-11-14T16:38:03.084Z,98.61
2018-11-14T16:40:33.914Z,98.46
2018-11-14T16:43:05.243Z,97.91
2018-11-14T16:45:34.806Z,97.96
2018-11-14T16:48:04.590Z,98.30
2018-11-14T16:50:34.269Z,97.89
2018-11-14T16:53:03.735Z,97.69
2018-11-14T16:55:33.328Z,98.03
2018-11-14T16:58:02.739Z,97.67
2018-11-14T17:00:32.615Z,97.72
2018-11-14T17:03:02.022Z,97.42
2018-11-14T17:05:32.425Z,97.85
2018-11-14T17:08:01.846Z,97.46
2018-11-14T17:10:31.317Z,97.67
2018-11-14T17:13:01.666Z,97.76
2018-11-14T17:15:31.143Z,97.76
2018-11-14T17:18:00.586Z,97.72
2018-11-14T17:20:30.024Z,98.03
2018-11-14T17:22:59.455Z,98.24
2018-11-14T17:25:28.885Z,98.11
2018-11-14T17:27:58.297Z,98.64
2018-11-14T17:30:28.608Z,97.70
2018-11-14T17:32:58.022Z,98.48
2018-11-14T17:35:27.473Z,98.23
2018-11-14T17:37:56.922Z,98.57
2018-11-14T17:40:27.749Z,98.78
2018-11-14T17:42:57.300Z,99.04
2018-11-14T17:45:28.302Z,98.91
2018-11-14T17:47:58.231Z,98.98
2018-11-14T17:50:33.114Z,98.87
2018-11-14T17:53:03.237Z,99.43
2018-11-14T17:55:32.771Z,99.51
2018-11-14T17:58:02.169Z,99.63
2018-11-14T18:00:32.162Z,99.52
2018-11-14T18:03:01.715Z,99.13
2018-11-14T18:05:31.905Z,99.40
2018-11-14T18:08:01.429Z,100.00
2018-11-14T18:10:31.809Z,99.74
2018-11-14T18:13:02.294Z,100.00
2018-11-14T18:15:31.761Z,100.00
2018-11-14T18:18:01.197Z,100.00
2018-11-14T18:20:31.936Z,100.00
2018-11-14T18:23:01.831Z,100.00
2018-11-14T18:25:31.505Z,100.00
2018-11-14T18:28:00.940Z,100.00
2018-11-14T18:30:31.260Z,100.00
2018-11-14T18:33:01.614Z,100.00
2018-11-14T18:35:31.315Z,100.00
2018-11-14T18:38:01.229Z,100.00
2018-11-14T18:40:33.080Z,100.00
2018-11-14T18:43:02.506Z,100.00
2018-11-14T18:45:35.334Z,100.00
2018-11-14T18:48:05.811Z,100.00
2018-11-14T18:50:35.266Z,100.00
2018-11-14T18:53:05.002Z,100.00
2018-11-14T18:55:35.217Z,100.00
2018-11-14T18:58:05.375Z,100.00
2018-11-14T19:00:35.434Z,100.00
2018-11-14T19:03:05.226Z,100.00
2018-11-14T19:05:34.687Z,100.00
2018-11-14T19:08:04.190Z,100.00
2018-11-14T19:10:34.427Z,100.00
2018-11-14T19:13:04.029Z,100.00
2018-11-14T19:15:34.898Z,100.00
2018-11-14T19:18:04.469Z,100.00
2018-11-14T19:20:34.807Z,100.00
2018-11-14T19:23:05.037Z,100.00
2018-11-14T19:25:35.919Z,100.00
2018-11-14T19:28:05.847Z,100.00
2018-11-14T19:30:36.566Z,100.00
2018-11-14T19:33:06.304Z,100.00
2018-11-14T19:35:35.726Z,100.00
2018-11-14T19:38:05.399Z,100.00
2018-11-14T19:40:35.988Z,100.00
2018-11-14T19:43:08.346Z,100.00
2018-11-14T19:45:38.685Z,100.00
2018-11-14T19:48:08.678Z,100.00
2018-11-14T19:50:38.201Z,100.00
2018-11-14T19:53:07.639Z,100.00
2018-11-14T19:55:37.416Z,100.00
2018-11-14T19:58:07.534Z,100.00
2018-11-14T20:00:38.258Z,100.00
2018-11-14T20:03:08.798Z,100.00
2018-11-14T20:05:38.280Z,100.00
2018-11-14T20:08:07.725Z,100.00
2018-11-14T20:10:37.313Z,100.00
2018-11-14T20:13:06.891Z,100.00
2018-11-14T20:15:37.346Z,100.00
2018-11-14T20:18:10.630Z,100.00
2018-11-14T20:20:40.842Z,100.00
2018-11-14T20:23:10.313Z,100.00
2018-11-14T20:25:39.768Z,100.00
2018-11-14T20:28:09.193Z,100.00
2018-11-14T20:30:39.695Z,100.00
2018-11-14T20:33:11.031Z,100.00
2018-11-14T20:35:40.489Z,100.00
2018-11-14T20:38:09.952Z,100.00
2018-11-14T20:40:42.497Z,100.00
2018-11-14T20:43:12.297Z,100.00
2018-11-14T20:45:41.761Z,100.00
2018-11-14T20:48:11.252Z,100.00
2018-11-14T20:50:40.700Z,100.00
2018-11-14T20:53:10.215Z,100.00
2018-11-14T20:55:39.638Z,100.00
2018-11-14T20:58:09.100Z,100.00
2018-11-14T21:00:39.158Z,100.00
2018-11-14T21:03:09.041Z,100.00
2018-11-14T21:05:38.582Z,100.00
2018-11-14T21:08:07.997Z,100.00
2018-11-14T21:10:37.504Z,100.00
2018-11-14T21:13:07.322Z,100.00
2018-11-14T21:15:38.282Z,100.00
2018-11-14T21:18:08.034Z,100.00
2018-11-14T21:20:37.753Z,100.00
2018-11-14T21:23:07.244Z,100.00
2018-11-14T21:25:36.902Z,100.00
2018-11-14T21:28:06.711Z,100.00
2018-11-14T21:30:36.167Z,100.00
2018-11-14T21:33:06.128Z,100.00
2018-11-14T21:35:36.869Z,100.00
2018-11-14T21:38:08.018Z,100.00
2018-11-14T21:40:37.475Z,100.00
2018-11-14T21:43:07.837Z,100.00
2018-11-14T21:45:37.290Z,100.00
2018-11-14T21:48:15.751Z,100.00
2018-11-14T21:50:45.884Z,100.00
2018-11-14T21:53:15.416Z,100.00
2018-11-14T21:55:44.888Z,100.00
2018-11-14T21:58:14.295Z,100.00
2018-11-14T22:00:43.758Z,100.00
2018-11-14T22:03:13.195Z,100.00
2018-11-14T22:05:42.681Z,100.00
2018-11-14T22:08:12.286Z,100.00
2018-11-14T22:10:41.747Z,100.00
2018-11-14T22:13:11.212Z,100.00
2018-11-14T22:15:40.650Z,100.00
2018-11-14T22:18:10.069Z,100.00
2018-11-14T22:20:39.522Z,100.00
2018-11-14T22:23:08.970Z,100.00
2018-11-14T22:25:38.379Z,100.00
2018-11-14T22:28:08.032Z,100.00
2018-11-14T22:30:37.357Z,100.00
2018-11-14T22:33:06.952Z,100.00
2018-11-14T22:35:36.394Z,100.00
2018-11-14T22:38:05.822Z,100.00
2018-11-14T22:40:35.262Z,100.00
2018-11-14T22:43:04.717Z,100.00
2018-11-14T22:45:34.295Z,100.00
2018-11-14T22:48:03.782Z,100.00
2018-11-14T22:50:33.253Z,100.00
2018-11-14T22:53:02.714Z,100.00
2018-11-14T22:55:32.234Z,100.00
2018-11-14T22:58:01.669Z,100.00
2018-11-14T23:00:33.457Z,100.00
2018-11-14T23:03:03.786Z,100.00
2018-11-14T23:05:33.240Z,100.00
2018-11-14T23:08:02.667Z,100.00
2018-11-14T23:10:32.098Z,100.00
2018-11-14T23:13:01.525Z,100.00
2018-11-14T23:15:31.022Z,100.00
2018-11-14T23:18:00.448Z,100.00
2018-11-14T23:20:29.987Z,100.00
2018-11-14T23:22:59.445Z,100.00
2018-11-14T23:25:31.803Z,100.00
2018-11-14T23:28:01.218Z,100.00
2018-11-14T23:30:30.914Z,100.00
2018-11-14T23:33:00.329Z,99.93
2018-11-14T23:35:30.862Z,100.00
2018-11-14T23:38:03.615Z,100.00
2018-11-14T23:40:33.063Z,100.00
2018-11-14T23:43:02.499Z,100.00
2018-11-14T23:45:32.268Z,100.00
2018-11-14T23:48:01.718Z,100.00
2018-11-14T23:50:32.186Z,100.00
2018-11-14T23:53:02.519Z,99.71
2018-11-14T23:55:32.530Z,100.00
2018-11-14T23:58:01.986Z,100.00
